Time;durP1;ratioP1;P1;durP2;ratioP2;P2;SDS_P1;SDS_P2;PMS_P1;PMS_P2;Temp;Humidity;BMP_temperature;BMP_pressure;BME280_temperature;BME280_humidity;BME280_pressure;Samples;Min_cycle;Max_cycle;Signal;HPM_P1;HPM_P2
2021/05/06 00:04:29;;;;;;;11.60;9.90;;;5.40;99.90;;;;;;5033287;28;20289;-69
2021/05/06 00:32:02;;;;;;;18.37;13.40;;;5.10;99.90;;;;;;5066930;28;20221;-69
2021/05/06 00:34:28;;;;;;;18.50;13.37;;;5.10;99.90;;;;;;5065655;28;20281;-68
2021/05/06 00:36:56;;;;;;;19.73;13.43;;;5.10;99.90;;;;;;5066887;28;20203;-73
2021/05/06 00:39:26;;;;;;;20.57;14.20;;;5.00;99.90;;;;;;5067670;28;20202;-73
2021/05/06 01:01:32;;;;;;;17.87;11.33;;;4.10;99.90;;;;;;5066745;28;20206;-71
2021/05/06 01:04:12;;;;;;;15.93;12.00;;;4.00;99.90;;;;;;5066873;28;20191;-71
2021/05/06 01:06:48;;;;;;;15.27;12.00;;;3.90;99.90;;;;;;5068185;28;20206;-71
2021/05/06 01:09:18;;;;;;;17.10;11.33;;;3.80;99.90;;;;;;5066732;28;20189;-70
2021/05/06 01:11:50;;;;;;;12.60;11.17;;;3.70;99.90;;;;;;5065795;28;20276;-71
2021/05/06 01:14:17;;;;;;;15.73;11.63;;;3.70;99.90;;;;;;5068733;28;20218;-70
2021/05/06 01:16:43;;;;;;;21.33;12.20;;;3.60;99.90;;;;;;5070547;28;20670;-72
2021/05/06 01:19:10;;;;;;;16.57;11.57;;;3.70;99.90;;;;;;5068395;28;20285;-70
2021/05/06 01:21:37;;;;;;;17.00;11.97;;;3.80;99.90;;;;;;5068569;28;20203;-72
2021/05/06 01:24:05;;;;;;;21.33;12.93;;;4.00;99.90;;;;;;5066847;28;20202;-69
2021/05/06 01:26:34;;;;;;;16.37;11.93;;;4.30;99.90;;;;;;5068758;28;20195;-69
2021/05/06 01:29:04;;;;;;;15.07;11.30;;;4.50;99.90;;;;;;5068120;28;20195;-72
2021/05/06 01:31:33;;;;;;;15.67;12.20;;;4.70;99.90;;;;;;5066373;28;20216;-70
2021/05/06 01:34:07;;;;;;;18.23;12.87;;;4.90;99.90;;;;;;5070261;28;20226;-69
2021/05/06 01:36:37;;;;;;;18.13;12.43;;;5.00;99.90;;;;;;5066432;28;20198;-70
2021/05/06 01:39:29;;;;;;;18.87;12.57;;;5.00;99.90;;;;;;5066526;28;20264;-68
2021/05/06 01:41:59;;;;;;;17.67;11.63;;;5.10;99.90;;;;;;5066574;28;20298;-71
2021/05/06 01:44:49;;;;;;;18.63;11.33;;;5.10;99.90;;;;;;5066392;28;20229;-70
2021/05/06 01:47:20;;;;;;;16.57;11.00;;;5.00;99.90;;;;;;5069522;28;20203;-71
2021/05/06 01:50:08;;;;;;;14.80;10.73;;;4.90;99.90;;;;;;5069100;28;20190;-70
2021/05/06 01:58:13;;;;;;;13.70;9.70;;;4.80;99.90;;;;;;5072888;28;20213;-72
2021/05/06 02:00:40;;;;;;;17.83;10.10;;;4.80;99.90;;;;;;5066750;28;20199;-70
2021/05/06 02:03:07;;;;;;;14.83;9.93;;;4.80;99.90;;;;;;5067304;28;20199;-70
2021/05/06 02:05:33;;;;;;;14.73;9.57;;;5.00;99.90;;;;;;5066527;28;20209;-71
2021/05/06 02:08:01;;;;;;;16.63;9.73;;;5.00;99.90;;;;;;5065238;28;20390;-71
2021/05/06 02:10:28;;;;;;;17.73;10.33;;;5.10;99.90;;;;;;5065404;28;20628;-71
2021/05/06 02:12:55;;;;;;;14.67;10.00;;;5.10;99.90;;;;;;5066004;28;20238;-71
2021/05/06 02:15:23;;;;;;;19.87;10.67;;;5.10;99.90;;;;;;5066261;28;20199;-69
2021/05/06 02:17:50;;;;;;;14.10;9.80;;;5.10;99.90;;;;;;5066261;28;20923;-68
2021/05/06 02:20:17;;;;;;;16.23;10.97;;;5.00;99.90;;;;;;5065733;28;20208;-69
2021/05/06 02:22:46;;;;;;;15.67;11.00;;;4.90;99.90;;;;;;5067066;28;20210;-70
2021/05/06 02:25:13;;;;;;;15.37;10.97;;;4.80;99.90;;;;;;5065944;28;20994;-69
2021/05/06 02:27:40;;;;;;;15.90;10.70;;;4.60;99.90;;;;;;5066548;28;20234;-72
2021/05/06 02:30:08;;;;;;;14.97;10.33;;;4.40;99.90;;;;;;5065813;28;20203;-72
2021/05/06 02:32:35;;;;;;;15.23;10.53;;;4.40;99.90;;;;;;5067093;28;20280;-72
2021/05/06 02:35:01;;;;;;;18.30;11.13;;;4.30;99.90;;;;;;5066275;28;20202;-72
2021/05/06 02:37:28;;;;;;;17.13;11.40;;;4.30;99.90;;;;;;5065661;28;20191;-73
2021/05/06 02:39:55;;;;;;;15.23;10.87;;;4.30;99.90;;;;;;5065603;28;20199;-72
2021/05/06 02:42:22;;;;;;;16.00;11.27;;;4.40;99.90;;;;;;5065352;28;20195;-72
2021/05/06 02:44:49;;;;;;;17.03;11.77;;;4.40;99.90;;;;;;5066492;28;20203;-73
2021/05/06 02:47:15;;;;;;;16.30;11.07;;;4.30;99.90;;;;;;5066356;28;20240;-71
2021/05/06 02:49:45;;;;;;;19.40;12.47;;;4.30;99.90;;;;;;5065445;28;20222;-72
2021/05/06 02:52:15;;;;;;;27.53;18.33;;;4.30;99.90;;;;;;5065083;28;20238;-72
2021/05/06 02:54:44;;;;;;;33.80;21.40;;;4.40;99.90;;;;;;5063417;28;20653;-71
2021/05/06 02:57:18;;;;;;;44.40;25.93;;;4.60;99.90;;;;;;5065756;28;20213;-72
2021/05/06 03:02:48;;;;;;;41.40;28.17;;;4.70;99.90;;;;;;5072243;28;20214;-72
2021/05/06 03:05:15;;;;;;;45.97;27.40;;;4.80;99.90;;;;;;5067046;28;20195;-72
2021/05/06 03:07:45;;;;;;;52.00;29.30;;;4.80;99.90;;;;;;5066184;28;20210;-71
2021/05/06 03:10:21;;;;;;;50.27;29.90;;;4.70;99.90;;;;;;5066402;28;20199;-72
2021/05/06 03:13:07;;;;;;;47.97;30.77;;;4.70;99.90;;;;;;5064161;28;20305;-70
2021/05/06 03:21:25;;;;;;;49.83;29.83;;;4.50;99.90;;;;;;5064655;28;20679;-72
2021/05/06 03:23:52;;;;;;;50.20;28.03;;;4.40;99.90;;;;;;5065393;28;20220;-72
2021/05/06 03:26:19;;;;;;;52.20;28.03;;;4.20;99.90;;;;;;5064363;28;20191;-70
2021/05/06 03:28:49;;;;;;;48.27;27.87;;;4.10;99.90;;;;;;5065883;28;20195;-71
2021/05/06 03:31:27;;;;;;;46.50;26.43;;;4.10;99.90;;;;;;5071001;28;20313;-71
2021/05/06 03:42:10;;;;;;;43.07;25.83;;;4.00;99.90;;;;;;5066780;28;20229;-72
2021/05/06 04:18:08;;;;;;;42.97;25.93;;;4.30;99.90;;;;;;5066626;28;20663;-70
2021/05/06 04:26:19;;;;;;;48.60;27.57;;;4.40;99.90;;;;;;5066122;28;20280;-69
2021/05/06 04:37:01;;;;;;;45.77;26.73;;;4.40;99.90;;;;;;5064824;28;20619;-72
2021/05/06 04:39:42;;;;;;;50.50;28.03;;;4.50;99.90;;;;;;5067201;28;20203;-69
2021/05/06 04:53:58;;;;;;;54.23;28.93;;;4.60;99.90;;;;;;5059471;28;20321;-70
2021/05/06 04:56:54;;;;;;;58.27;28.90;;;4.70;99.90;;;;;;5061517;28;20225;-72
2021/05/06 05:04:51;;;;;;;52.80;29.03;;;4.80;99.90;;;;;;5065270;28;20200;-69
2021/05/06 05:07:21;;;;;;;52.87;29.67;;;4.80;99.90;;;;;;5062671;28;20236;-71
2021/05/06 05:10:03;;;;;;;57.20;30.40;;;4.80;99.90;;;;;;5060601;28;20206;-69
2021/05/06 05:18:19;;;;;;;57.80;31.20;;;5.00;99.90;;;;;;5018375;28;20210;-70
2021/05/06 05:21:02;;;;;;;60.97;33.33;;;5.30;99.90;;;;;;5065555;28;20204;-70
2021/05/06 05:23:35;;;;;;;53.30;31.47;;;5.50;99.90;;;;;;5069262;28;21272;-71
2021/05/06 05:26:04;;;;;;;58.33;34.13;;;5.70;99.90;;;;;;5069593;28;20194;-72
2021/05/06 05:28:31;;;;;;;56.77;34.07;;;5.90;99.90;;;;;;5067979;28;20218;-69
2021/05/06 05:30:58;;;;;;;63.37;34.83;;;6.10;99.90;;;;;;5070687;28;20252;-70
2021/05/06 05:33:26;;;;;;;65.47;36.20;;;6.30;99.90;;;;;;5067822;28;20218;-71
2021/05/06 05:36:04;;;;;;;75.67;38.10;;;6.50;99.90;;;;;;5067930;28;20323;-71
2021/05/06 05:38:38;;;;;;;74.70;38.10;;;6.50;99.90;;;;;;5068201;28;20244;-72
2021/05/06 05:41:24;;;;;;;69.17;37.67;;;6.70;99.90;;;;;;5065804;28;20198;-69
2021/05/06 05:44:06;;;;;;;61.33;36.93;;;7.00;99.90;;;;;;5059197;28;20222;-70
2021/05/06 05:54:48;;;;;;;46.57;29.93;;;8.50;99.90;;;;;;5068921;28;20202;-70
2021/05/06 05:57:15;;;;;;;38.73;26.80;;;8.80;99.90;;;;;;5070867;28;20546;-70
2021/05/06 05:59:43;;;;;;;28.20;22.07;;;9.00;99.90;;;;;;5069554;28;20194;-72
2021/05/06 06:02:09;;;;;;;23.80;18.53;;;9.30;99.90;;;;;;5067220;28;20217;-71
2021/05/06 06:04:36;;;;;;;19.80;17.10;;;9.20;99.90;;;;;;5066700;28;20222;-71
2021/05/06 06:07:02;;;;;;;17.07;14.47;;;9.40;99.90;;;;;;5068137;28;20195;-71
2021/05/06 06:09:29;;;;;;;13.73;12.27;;;9.60;99.90;;;;;;5068001;28;20203;-70
2021/05/06 06:11:55;;;;;;;11.53;10.33;;;9.80;99.90;;;;;;5068233;28;20227;-71
2021/05/06 06:14:25;;;;;;;10.23;9.03;;;10.20;99.90;;;;;;5065841;28;20195;-71
2021/05/06 06:16:52;;;;;;;7.97;7.17;;;10.20;99.90;;;;;;5068660;28;20210;-70
2021/05/06 06:19:23;;;;;;;10.73;8.43;;;10.10;99.90;;;;;;5065443;28;20715;-72
2021/05/06 06:21:52;;;;;;;9.60;8.60;;;10.10;99.90;;;;;;5066871;28;20191;-72
2021/05/06 06:24:19;;;;;;;8.60;7.30;;;10.30;99.90;;;;;;5066105;28;20199;-71
2021/05/06 06:26:46;;;;;;;7.73;6.67;;;10.40;99.90;;;;;;5067775;28;20244;-71
2021/05/06 06:29:15;;;;;;;7.53;6.83;;;10.60;99.90;;;;;;5066965;28;20222;-72
2021/05/06 06:31:44;;;;;;;7.27;6.53;;;10.60;99.90;;;;;;5068979;28;20228;-70
2021/05/06 06:34:11;;;;;;;9.00;6.67;;;10.50;99.90;;;;;;5066783;28;20198;-71
2021/05/06 06:36:39;;;;;;;9.20;6.50;;;10.50;99.90;;;;;;5067722;28;20275;-71
2021/05/06 06:39:06;;;;;;;7.50;6.80;;;10.70;99.90;;;;;;5059690;28;20203;-71
2021/05/06 06:41:33;;;;;;;8.10;7.10;;;10.80;99.90;;;;;;5058749;28;20596;-71
2021/05/06 06:44:01;;;;;;;8.17;6.67;;;11.20;99.90;;;;;;5058390;28;20952;-71
2021/05/06 06:46:28;;;;;;;8.27;6.40;;;11.30;99.90;;;;;;5060845;28;20544;-72
2021/05/06 06:48:54;;;;;;;6.37;5.77;;;11.50;99.90;;;;;;5062108;28;20664;-69
2021/05/06 06:51:21;;;;;;;6.50;5.90;;;11.70;99.90;;;;;;5060779;28;20210;-71
2021/05/06 06:53:48;;;;;;;6.87;6.17;;;11.90;99.90;;;;;;5058913;28;20624;-72
2021/05/06 06:56:14;;;;;;;6.20;5.37;;;12.10;99.90;;;;;;5064295;28;20589;-75
2021/05/06 06:58:41;;;;;;;6.20;5.60;;;12.30;99.90;;;;;;5060053;28;20209;-73
2021/05/06 07:01:08;;;;;;;5.90;5.30;;;12.50;99.90;;;;;;5064113;28;20202;-72
2021/05/06 07:03:34;;;;;;;6.23;5.40;;;12.60;99.90;;;;;;5066923;28;20210;-72
2021/05/06 07:06:01;;;;;;;5.30;4.80;;;12.70;99.90;;;;;;5065767;28;20198;-70
2021/05/06 07:08:32;;;;;;;6.67;6.00;;;12.70;99.90;;;;;;5067011;28;20199;-70
2021/05/06 07:11:01;;;;;;;6.60;6.00;;;12.70;99.90;;;;;;5067115;28;20649;-73
2021/05/06 07:13:28;;;;;;;8.43;6.83;;;12.90;99.90;;;;;;5063235;28;20223;-71
2021/05/06 07:15:56;;;;;;;8.53;5.67;;;13.10;99.90;;;;;;5068021;28;20203;-72
2021/05/06 07:18:23;;;;;;;5.77;5.27;;;13.20;99.90;;;;;;5059856;28;20226;-73
2021/05/06 07:20:50;;;;;;;6.40;5.23;;;13.30;99.90;;;;;;5062648;28;20219;-71
2021/05/06 07:23:18;;;;;;;6.53;5.90;;;13.50;99.90;;;;;;5069790;28;20718;-68
2021/05/06 07:25:47;;;;;;;7.60;6.30;;;13.90;99.90;;;;;;5068264;28;20690;-68
2021/05/06 07:28:15;;;;;;;5.73;5.13;;;14.20;99.90;;;;;;5068932;28;20199;-68
2021/05/06 07:30:42;;;;;;;6.67;5.30;;;14.40;99.90;;;;;;5069127;28;20198;-70
2021/05/06 07:33:10;;;;;;;5.93;5.33;;;14.50;99.90;;;;;;5068908;28;20223;-65
2021/05/06 07:35:36;;;;;;;5.50;4.70;;;14.60;99.90;;;;;;5065373;28;20211;-69
2021/05/06 07:38:03;;;;;;;5.83;5.10;;;14.70;99.90;;;;;;5069603;28;20206;-70
2021/05/06 07:40:30;;;;;;;5.90;4.90;;;14.70;99.90;;;;;;5066977;28;20206;-70
2021/05/06 07:42:57;;;;;;;5.23;4.53;;;14.90;99.90;;;;;;5066946;28;20567;-69
2021/05/06 07:45:24;;;;;;;6.83;5.40;;;14.80;99.90;;;;;;5070087;28;20540;-70
2021/05/06 07:47:51;;;;;;;6.53;5.37;;;14.70;99.90;;;;;;5066597;28;21512;-69
2021/05/06 07:50:19;;;;;;;7.10;5.37;;;14.40;99.90;;;;;;5067446;28;20198;-70
2021/05/06 07:52:48;;;;;;;8.07;6.67;;;14.30;99.90;;;;;;5067294;28;20284;-70
2021/05/06 07:55:15;;;;;;;6.57;5.93;;;14.60;99.90;;;;;;5068499;28;20325;-70
2021/05/06 07:57:41;;;;;;;6.33;5.73;;;14.60;99.90;;;;;;5066998;28;20664;-70
2021/05/06 08:00:12;;;;;;;6.80;5.50;;;14.50;99.90;;;;;;5071258;28;20195;-72
2021/05/06 08:02:40;;;;;;;6.00;5.40;;;14.70;99.90;;;;;;5069116;28;20195;-71
2021/05/06 08:05:08;;;;;;;5.97;5.33;;;15.00;99.90;;;;;;5067617;28;20259;-68
2021/05/06 08:07:34;;;;;;;5.80;5.03;;;15.50;99.90;;;;;;5065175;28;20565;-71
2021/05/06 08:10:01;;;;;;;7.10;5.43;;;15.40;99.90;;;;;;5063307;28;20199;-74
2021/05/06 08:12:27;;;;;;;6.10;5.50;;;15.10;99.90;;;;;;5063863;28;20237;-74
2021/05/06 08:14:54;;;;;;;9.47;5.63;;;15.20;99.90;;;;;;5061791;28;20721;-72
2021/05/06 08:17:23;;;;;;;5.97;5.40;;;15.40;99.90;;;;;;5057634;28;20233;-73
2021/05/06 08:19:49;;;;;;;7.40;5.10;;;15.50;99.90;;;;;;5060946;28;20285;-74
2021/05/06 08:22:16;;;;;;;5.87;5.20;;;15.60;99.90;;;;;;5057034;28;20195;-72
2021/05/06 08:24:44;;;;;;;5.83;5.23;;;15.50;99.90;;;;;;5057733;28;20191;-73
2021/05/06 08:27:11;;;;;;;8.00;5.30;;;15.20;99.90;;;;;;5056393;28;20286;-73
2021/05/06 08:29:37;;;;;;;6.97;5.13;;;14.90;99.90;;;;;;5057837;28;20223;-73
2021/05/06 08:32:04;;;;;;;6.60;5.13;;;14.90;99.90;;;;;;5058961;28;20707;-71
2021/05/06 08:34:32;;;;;;;5.70;4.63;;;15.30;99.90;;;;;;5057882;28;20206;-70
2021/05/06 08:36:58;;;;;;;6.20;4.60;;;15.80;99.90;;;;;;5060067;28;20766;-74
2021/05/06 08:39:25;;;;;;;5.73;4.47;;;16.30;99.90;;;;;;5058062;28;20199;-73
2021/05/06 08:41:51;;;;;;;6.63;4.70;;;16.60;99.90;;;;;;5058763;28;20210;-73
2021/05/06 08:44:20;;;;;;;5.20;4.17;;;16.50;99.90;;;;;;5057732;28;20203;-74
2021/05/06 08:47:01;;;;;;;4.93;4.37;;;16.60;99.90;;;;;;5059185;28;20237;-73
2021/05/06 08:49:28;;;;;;;5.20;4.23;;;16.90;99.90;;;;;;5055639;28;20211;-72
2021/05/06 08:51:56;;;;;;;7.20;4.27;;;16.70;99.90;;;;;;5059534;28;21184;-73
2021/05/06 08:54:22;;;;;;;4.37;3.90;;;16.80;99.90;;;;;;5059593;28;20443;-73
2021/05/06 08:56:49;;;;;;;4.83;4.27;;;17.00;99.90;;;;;;5057900;28;20296;-74
2021/05/06 08:59:16;;;;;;;5.67;4.03;;;16.90;99.90;;;;;;5057392;28;20203;-73
2021/05/06 09:01:42;;;;;;;5.97;4.40;;;16.70;99.90;;;;;;5055448;28;20223;-72
2021/05/06 09:04:09;;;;;;;4.63;4.23;;;16.40;99.90;;;;;;5060665;28;20396;-73
2021/05/06 09:06:35;;;;;;;7.83;4.97;;;15.80;99.90;;;;;;5051254;28;20254;-71
2021/05/06 09:09:04;;;;;;;5.10;4.10;;;15.60;99.90;;;;;;5053331;28;20222;-72
2021/05/06 09:11:33;;;;;;;5.57;4.70;;;15.30;99.90;;;;;;5053661;28;20681;-73
2021/05/06 09:14:04;;;;;;;4.93;4.43;;;15.20;99.90;;;;;;5053854;28;20237;-73
2021/05/06 09:16:35;;;;;;;4.50;4.07;;;15.00;99.90;;;;;;5057636;28;20628;-73
2021/05/06 09:19:06;;;;;;;4.50;3.90;;;14.90;99.90;;;;;;5056830;28;20521;-72
2021/05/06 09:21:34;;;;;;;4.20;3.47;;;15.10;99.90;;;;;;5059617;28;20285;-72
2021/05/06 09:24:19;;;;;;;4.57;3.83;;;15.40;99.90;;;;;;5059080;28;20206;-73
2021/05/06 09:26:46;;;;;;;3.60;3.30;;;15.70;99.90;;;;;;5056645;28;20324;-73
2021/05/06 09:29:29;;;;;;;3.87;3.57;;;15.90;99.90;;;;;;5056485;28;20731;-72
2021/05/06 09:32:09;;;;;;;4.77;3.53;;;16.30;99.90;;;;;;5056379;28;20191;-71
2021/05/06 09:34:39;;;;;;;3.97;3.53;;;16.40;99.90;;;;;;5055665;28;20530;-73
2021/05/06 09:37:08;;;;;;;3.87;3.40;;;16.40;99.90;;;;;;5057140;28;20269;-72
2021/05/06 09:39:36;;;;;;;4.97;3.80;;;16.80;99.90;;;;;;5056310;28;20203;-70
2021/05/06 09:42:08;;;;;;;4.47;3.80;;;17.20;99.90;;;;;;5057636;28;21889;-71
2021/05/06 09:44:52;;;;;;;4.23;3.80;;;18.00;99.90;;;;;;5058648;28;20201;-72
2021/05/06 09:47:19;;;;;;;5.17;4.53;;;18.20;99.90;;;;;;5056636;28;20247;-74
2021/05/06 09:49:46;;;;;;;3.93;3.10;;;18.10;99.90;;;;;;5056466;28;20194;-70
2021/05/06 09:52:13;;;;;;;3.30;3.00;;;17.70;99.90;;;;;;5061597;28;20230;-71
2021/05/06 09:54:48;;;;;;;3.33;2.40;;;17.20;99.90;;;;;;5063021;28;20562;-70
2021/05/06 09:57:25;;;;;;;3.60;3.23;;;16.80;99.90;;;;;;5062498;28;20213;-71
2021/05/06 10:00:13;;;;;;;3.83;3.43;;;16.00;99.90;;;;;;5060700;28;21147;-70
2021/05/06 10:02:40;;;;;;;3.83;3.50;;;15.60;99.90;;;;;;5064470;28;20671;-71
2021/05/06 10:05:08;;;;;;;4.17;3.77;;;15.30;99.90;;;;;;5063043;28;20651;-71
2021/05/06 10:07:36;;;;;;;3.47;3.17;;;15.00;99.90;;;;;;5062504;28;20252;-72
2021/05/06 10:10:07;;;;;;;3.90;3.30;;;15.10;99.90;;;;;;5062826;28;20210;-72
2021/05/06 10:12:35;;;;;;;3.97;3.57;;;15.00;99.90;;;;;;5064291;28;20739;-70
2021/05/06 10:15:03;;;;;;;4.70;3.70;;;14.80;99.90;;;;;;5063937;28;20210;-71
2021/05/06 10:17:31;;;;;;;4.33;3.10;;;15.30;99.90;;;;;;5061330;28;20297;-71
2021/05/06 10:19:59;;;;;;;4.17;3.40;;;16.10;99.90;;;;;;5062788;28;20213;-71
2021/05/06 10:22:27;;;;;;;5.20;3.40;;;15.80;99.90;;;;;;5063347;28;20702;-71
2021/05/06 10:24:54;;;;;;;3.73;3.00;;;15.20;99.90;;;;;;5063488;28;20224;-71
2021/05/06 10:27:23;;;;;;;4.13;3.20;;;14.90;99.90;;;;;;5062446;28;20213;-71
2021/05/06 10:29:52;;;;;;;3.63;3.33;;;14.30;99.90;;;;;;5062503;28;20228;-70
2021/05/06 10:32:20;;;;;;;4.67;3.80;;;14.00;99.90;;;;;;5062477;28;20195;-71
2021/05/06 10:34:51;;;;;;;3.40;3.10;;;14.50;99.90;;;;;;5061873;28;20648;-71
2021/05/06 10:37:23;;;;;;;3.47;3.27;;;15.40;99.90;;;;;;5062367;28;20201;-71
2021/05/06 10:39:49;;;;;;;3.90;3.60;;;16.00;99.90;;;;;;5062731;28;20264;-71
2021/05/06 10:42:37;;;;;;;4.57;3.53;;;16.30;99.90;;;;;;5060863;28;20897;-71
2021/05/06 10:45:33;;;;;;;3.40;3.10;;;15.90;99.90;;;;;;5062333;28;20723;-71
2021/05/06 10:48:00;;;;;;;5.90;3.60;;;15.10;99.90;;;;;;5062680;28;20652;-70
2021/05/06 10:50:34;;;;;;;3.60;3.30;;;14.30;99.90;;;;;;5063569;28;20202;-68
2021/05/06 10:53:01;;;;;;;4.17;3.77;;;13.70;99.90;;;;;;5065762;28;20226;-71
2021/05/06 10:55:48;;;;;;;4.23;3.83;;;13.20;99.90;;;;;;5066508;28;20199;-71
2021/05/06 10:58:36;;;;;;;3.90;3.60;;;12.70;99.90;;;;;;5066646;28;20331;-71
2021/05/06 11:01:22;;;;;;;4.17;3.77;;;12.40;99.90;;;;;;5065892;28;20203;-72
2021/05/06 11:04:09;;;;;;;4.90;4.07;;;12.00;99.90;;;;;;5065398;28;20670;-71
2021/05/06 11:06:41;;;;;;;4.93;4.33;;;11.60;99.90;;;;;;5067060;28;20808;-71
2021/05/06 11:09:52;;;;;;;5.87;4.87;;;11.30;99.90;;;;;;5066855;28;20218;-72
2021/05/06 11:12:26;;;;;;;4.30;3.90;;;11.00;99.90;;;;;;5067515;28;20202;-72
2021/05/06 11:15:28;;;;;;;5.60;4.67;;;10.80;99.90;;;;;;5066616;28;20191;-72
2021/05/06 11:17:57;;;;;;;5.53;4.80;;;10.70;99.90;;;;;;5058902;28;20339;-71
2021/05/06 11:20:47;;;;;;;4.97;4.57;;;10.70;99.90;;;;;;5066168;28;20206;-72
2021/05/06 11:23:27;;;;;;;5.33;4.80;;;10.70;99.90;;;;;;5070292;28;20203;-72
2021/05/06 11:26:11;;;;;;;5.07;4.67;;;10.80;99.90;;;;;;5066106;28;20194;-71
2021/05/06 11:28:51;;;;;;;5.70;5.17;;;10.90;99.90;;;;;;5065278;28;20203;-72
2021/05/06 11:31:47;;;;;;;7.00;4.80;;;10.90;99.90;;;;;;5065888;28;20652;-72
2021/05/06 11:34:41;;;;;;;4.43;4.03;;;11.00;99.90;;;;;;5060774;28;20222;-71
2021/05/06 11:37:19;;;;;;;4.50;3.83;;;11.30;99.90;;;;;;5065810;28;20191;-71
2021/05/06 11:40:00;;;;;;;4.30;3.90;;;11.80;99.90;;;;;;5067146;28;20198;-71
2021/05/06 11:42:29;;;;;;;4.23;3.80;;;12.30;99.90;;;;;;5065615;28;20217;-71
2021/05/06 11:45:20;;;;;;;4.30;3.90;;;12.80;99.90;;;;;;5066111;28;20199;-70
2021/05/06 11:47:48;;;;;;;3.93;3.63;;;13.60;99.90;;;;;;5066597;28;20195;-72
2021/05/06 11:50:20;;;;;;;5.57;3.97;;;13.90;99.90;;;;;;5071846;28;20195;-72
2021/05/06 11:52:47;;;;;;;4.17;3.70;;;14.40;99.90;;;;;;5068915;28;20238;-71
2021/05/06 11:55:27;;;;;;;4.13;3.73;;;15.30;99.90;;;;;;5070143;28;20724;-72
2021/05/06 11:57:54;;;;;;;4.07;3.57;;;16.50;99.90;;;;;;5070234;28;20206;-72
2021/05/06 12:00:25;;;;;;;4.70;3.30;;;17.00;99.90;;;;;;5064970;28;20212;-72
2021/05/06 12:03:01;;;;;;;2.90;2.70;;;17.30;99.90;;;;;;5070774;28;20250;-71
2021/05/06 12:05:54;;;;;;;3.63;3.33;;;17.20;99.90;;;;;;5070212;28;20191;-70
2021/05/06 12:08:22;;;;;;;3.77;3.43;;;17.00;99.90;;;;;;5070862;28;20252;-72
2021/05/06 12:10:49;;;;;;;3.80;3.23;;;17.00;99.90;;;;;;5071481;28;20223;-72
2021/05/06 12:13:17;;;;;;;7.23;6.47;;;16.90;99.90;;;;;;5069517;28;20303;-73
2021/05/06 12:15:45;;;;;;;4.30;3.53;;;16.70;99.90;;;;;;5072861;28;20252;-71
2021/05/06 12:18:23;;;;;;;4.03;3.70;;;16.80;99.90;;;;;;5069388;28;20191;-72
2021/05/06 12:20:54;;;;;;;4.47;3.80;;;17.70;99.90;;;;;;5068860;28;20514;-71
2021/05/06 12:23:21;;;;;;;3.17;2.87;;;18.20;99.90;;;;;;5068850;28;20583;-71
2021/05/06 12:25:48;;;;;;;3.83;3.30;;;17.60;99.90;;;;;;5071204;28;20207;-70
2021/05/06 12:28:15;;;;;;;4.43;3.27;;;17.10;99.90;;;;;;5070128;28;20195;-71
2021/05/06 12:30:41;;;;;;;3.77;3.37;;;16.70;99.90;;;;;;5069448;28;20256;-71
2021/05/06 12:33:08;;;;;;;4.30;3.23;;;16.20;99.90;;;;;;5068640;28;20226;-70
2021/05/06 12:35:49;;;;;;;4.70;3.40;;;15.60;99.90;;;;;;5068337;28;20248;-71
2021/05/06 12:38:16;;;;;;;3.43;3.10;;;15.20;99.90;;;;;;5069690;28;20241;-71
2021/05/06 12:40:43;;;;;;;4.20;3.47;;;14.60;99.90;;;;;;5068939;28;20543;-71
2021/05/06 12:43:29;;;;;;;3.90;3.60;;;14.10;99.90;;;;;;5068030;28;20672;-70
2021/05/06 12:46:05;;;;;;;3.90;3.50;;;13.50;99.90;;;;;;5067696;28;20675;-71
2021/05/06 12:48:39;;;;;;;4.37;3.80;;;12.70;99.90;;;;;;5068775;28;20199;-69
2021/05/06 12:51:08;;;;;;;4.57;3.17;;;12.20;99.90;;;;;;5068267;28;20244;-71
2021/05/06 12:53:35;;;;;;;3.60;3.30;;;12.00;99.90;;;;;;5067727;28;20234;-71
2021/05/06 12:56:02;;;;;;;3.83;3.53;;;12.00;99.90;;;;;;5068287;28;20652;-71
2021/05/06 12:58:29;;;;;;;3.70;3.40;;;12.00;99.90;;;;;;5068406;28;20199;-70
2021/05/06 13:01:12;;;;;;;4.40;3.90;;;12.00;99.90;;;;;;5067812;28;20199;-71
2021/05/06 13:03:42;;;;;;;4.00;3.63;;;11.90;99.90;;;;;;5069734;28;20202;-72
2021/05/06 13:06:11;;;;;;;3.93;3.43;;;11.80;99.90;;;;;;5069384;28;20206;-72
2021/05/06 13:08:39;;;;;;;3.87;3.47;;;11.60;99.90;;;;;;5066469;28;20623;-70
2021/05/06 13:11:08;;;;;;;4.70;3.30;;;11.30;99.90;;;;;;5068774;28;20601;-70
2021/05/06 13:13:39;;;;;;;4.07;3.40;;;11.00;99.90;;;;;;5068108;28;20797;-72
2021/05/06 13:16:07;;;;;;;5.57;3.20;;;10.80;99.90;;;;;;5068942;28;20660;-72
2021/05/06 13:18:35;;;;;;;3.97;2.83;;;10.70;99.90;;;;;;5068710;28;20198;-70
2021/05/06 13:21:02;;;;;;;3.60;3.30;;;10.40;99.90;;;;;;5066716;28;20692;-72
2021/05/06 13:23:30;;;;;;;4.70;3.50;;;10.10;99.90;;;;;;5070728;28;20195;-69
2021/05/06 13:25:58;;;;;;;4.10;3.70;;;9.90;99.90;;;;;;5067981;28;20762;-70
2021/05/06 13:28:43;;;;;;;4.53;3.60;;;9.60;99.90;;;;;;5076829;28;20570;-73
2021/05/06 13:31:12;;;;;;;3.90;3.60;;;9.60;99.90;;;;;;5069844;28;20211;-71
2021/05/06 13:33:40;;;;;;;4.10;3.70;;;9.50;99.90;;;;;;5079605;28;20271;-72
2021/05/06 13:36:08;;;;;;;5.60;5.00;;;9.30;99.90;;;;;;5077763;28;20263;-69
2021/05/06 13:38:56;;;;;;;6.40;5.83;;;9.10;99.90;;;;;;5075170;28;20652;-70
2021/05/06 13:41:24;;;;;;;7.13;6.43;;;9.00;99.90;;;;;;5074429;28;20425;-70
2021/05/06 13:43:52;;;;;;;7.20;6.57;;;8.90;99.90;;;;;;5070223;28;20199;-67
2021/05/06 13:46:19;;;;;;;7.57;6.73;;;8.80;99.90;;;;;;5071404;28;20199;-70
2021/05/06 13:48:45;;;;;;;7.50;6.80;;;8.70;99.90;;;;;;5072278;28;20210;-70
2021/05/06 13:51:14;;;;;;;8.10;5.87;;;8.70;99.90;;;;;;5070817;28;20199;-69
2021/05/06 13:53:42;;;;;;;7.87;6.50;;;8.60;99.90;;;;;;5074438;28;20251;-72
2021/05/06 13:56:10;;;;;;;6.70;6.07;;;8.60;99.90;;;;;;5071832;28;20550;-68
2021/05/06 13:58:37;;;;;;;7.40;6.70;;;8.60;99.90;;;;;;5072241;28;20218;-70
2021/05/06 14:01:05;;;;;;;7.03;5.90;;;8.60;99.90;;;;;;5068568;28;20207;-70
2021/05/06 14:03:32;;;;;;;6.87;5.47;;;8.70;99.90;;;;;;5071403;28;20202;-70
2021/05/06 14:05:59;;;;;;;6.53;5.40;;;8.80;99.90;;;;;;5071990;28;20205;-68
2021/05/06 14:08:26;;;;;;;5.47;4.97;;;9.00;99.90;;;;;;5069766;28;20202;-69
2021/05/06 14:10:53;;;;;;;6.83;4.97;;;9.00;99.90;;;;;;5071496;28;20620;-68
2021/05/06 14:13:20;;;;;;;5.40;4.13;;;9.20;99.90;;;;;;5068700;28;20227;-69
2021/05/06 14:15:47;;;;;;;6.67;4.70;;;9.30;99.90;;;;;;5066942;28;20198;-68
2021/05/06 14:18:14;;;;;;;4.80;4.00;;;9.30;99.90;;;;;;5071490;28;20207;-68
2021/05/06 14:20:41;;;;;;;5.27;4.60;;;9.40;99.90;;;;;;5070667;28;20762;-70
2021/05/06 14:23:08;;;;;;;4.77;4.30;;;9.50;99.90;;;;;;5068277;28;20202;-70
2021/05/06 14:25:36;;;;;;;4.80;4.27;;;9.60;99.90;;;;;;5072723;28;20206;-70
2021/05/06 14:28:04;;;;;;;4.47;3.83;;;9.80;99.90;;;;;;5071561;28;20583;-67
2021/05/06 14:30:32;;;;;;;4.73;4.10;;;9.90;99.90;;;;;;5071154;28;20729;-70
2021/05/06 14:32:59;;;;;;;5.53;4.00;;;10.00;99.90;;;;;;5070452;28;20317;-71
2021/05/06 14:35:26;;;;;;;4.80;4.03;;;10.00;99.90;;;;;;5069945;28;20202;-68
2021/05/06 14:37:52;;;;;;;6.63;4.60;;;10.20;99.90;;;;;;5067864;28;20198;-70
2021/05/06 14:40:19;;;;;;;4.77;4.27;;;10.30;99.90;;;;;;5066096;28;20198;-72
2021/05/06 14:42:45;;;;;;;6.93;3.97;;;10.40;99.90;;;;;;5061015;28;20979;-71
2021/05/06 14:45:13;;;;;;;6.40;4.40;;;10.50;99.90;;;;;;5063000;28;20264;-68
2021/05/06 14:47:41;;;;;;;4.80;3.70;;;10.60;99.90;;;;;;5062597;28;20369;-71
2021/05/06 14:50:10;;;;;;;3.60;3.30;;;10.60;99.90;;;;;;5059950;28;20209;-71
2021/05/06 14:52:37;;;;;;;5.43;3.73;;;10.50;99.90;;;;;;5061835;28;20218;-71
2021/05/06 14:55:05;;;;;;;4.93;3.80;;;10.60;99.90;;;;;;5071290;28;20210;-72
2021/05/06 14:57:31;;;;;;;4.87;4.03;;;10.60;99.90;;;;;;5072515;28;20205;-73
2021/05/06 14:59:59;;;;;;;4.73;4.13;;;10.60;99.90;;;;;;5072135;28;20195;-70
2021/05/06 15:02:26;;;;;;;6.23;3.63;;;10.60;99.90;;;;;;5064552;28;20240;-70
2021/05/06 15:04:53;;;;;;;4.27;3.87;;;10.60;99.90;;;;;;5060742;28;20679;-71
2021/05/06 15:07:20;;;;;;;6.00;4.30;;;10.60;99.90;;;;;;5069041;28;20202;-71
2021/05/06 15:09:46;;;;;;;9.13;4.40;;;10.70;99.90;;;;;;5070618;28;20267;-69
2021/05/06 15:12:13;;;;;;;4.37;3.97;;;10.80;99.90;;;;;;5070804;28;20210;-71
2021/05/06 15:14:40;;;;;;;4.93;3.83;;;10.80;99.90;;;;;;5068715;28;20245;-67
2021/05/06 15:17:06;;;;;;;4.33;3.93;;;10.90;99.90;;;;;;5059286;28;20301;-72
2021/05/06 15:19:33;;;;;;;4.20;3.83;;;10.90;99.90;;;;;;5064184;28;20618;-69
2021/05/06 15:22:01;;;;;;;6.63;4.00;;;10.80;99.90;;;;;;5058711;28;20297;-69
2021/05/06 15:24:27;;;;;;;5.53;4.00;;;10.80;99.90;;;;;;5061528;28;20206;-68
2021/05/06 15:26:54;;;;;;;3.97;3.50;;;10.70;99.90;;;;;;5060197;28;20655;-70
2021/05/06 15:29:20;;;;;;;3.80;2.97;;;10.70;99.90;;;;;;5059233;28;20206;-68
2021/05/06 15:31:47;;;;;;;3.10;2.77;;;10.60;99.90;;;;;;5064256;28;20383;-68